ADDS METAR Data INFO
IDs: Format: Raw Decoded Include TAF

Data at: 1353 UTC 17 Dec 2017

KHLC 171253Z AUTO 35013KT 7SM OVC009 00/M02 A3000 RMK AO2 SLP173 T00001017
KHLC 171227Z AUTO 35009KT 7SM BKN010 OVC100 M01/M02 A2998 RMK AO2 T10061017
KHLC 171153Z AUTO 36010KT 7SM OVC100 00/M01 A2995 RMK AO2 SLP154 60000 T00001011 10028 20000 53010
KHLC 171053Z AUTO 01014KT 7SM FEW048 OVC095 01/M01 A2993 RMK AO2 SLP143 T00061011
KHLC 170953Z AUTO 01013KT 7SM OVC060 01/M01 A2993 RMK AO2 RAE41 SLP141 P0000 T00061006
KHLC 170853Z AUTO 36012KT 7SM -RA OVC060 01/M01 A2992 RMK AO2 RAB35 SLP136 P0000 60000 T00111006 53009
KHLC 170753Z AUTO 01008KT 9SM OVC100 02/M01 A2990 RMK AO2 UPB33E46 SLP130 P0000 T00171011
KHLC 170653Z AUTO 04008KT 9SM CLR 02/M02 A2990 RMK AO2 SLP131 T00171017
KHLC 170553Z AUTO 03012KT 10SM CLR 03/M02 A2989 RMK AO2 SLP126 T00281017 10056 20022 401331061 53010
KHLC 170453Z AUTO 02019G26KT 10SM CLR 03/M03 A2987 RMK AO2 PK WND 02026/0452 SLP120 T00281028
KHLC 170353Z AUTO 03012KT 10SM CLR 03/M05 A2987 RMK AO2 SLP127 T00331050
KHLC 170253Z AUTO 05007KT 9SM CLR 03/M06 A2986 RMK AO2 SLP127 T00331061 51016
KHLC 170153Z AUTO 05008KT 10SM CLR 03/M06 A2985 RMK AO2 SLP125 T00281061
KHLC 170053Z AUTO 05010KT 10SM CLR 04/M07 A2982 RMK AO2 SLP116 T00441067
KHLC 162353Z AUTO 04010KT 10SM CLR 06/M07 A2981 RMK AO2 SLP106 T00561072 10133 20056 51016
KHLC 162253Z AUTO 05009KT 8SM CLR 09/M07 A2979 RMK AO2 SLP098 T00941067
KHLC 162153Z AUTO 08011KT 9SM CLR 12/M07 A2977 RMK AO2 SLP089 T01171072
KHLC 162053Z AUTO 08011KT 9SM CLR 12/M08 A2976 RMK AO2 SLP081 T01221078 55004
KHLC 161953Z AUTO 08010KT 10SM CLR 13/M08 A2974 RMK AO2 SLP075 T01281083
KHLC 161853Z AUTO 08010KT 10SM CLR 12/M08 A2975 RMK AO2 SLP076 T01221083
KHLC 161753Z AUTO 06009KT 10SM CLR 11/M08 A2977 RMK AO2 SLP084 T01111083 10111 21061 50005
KHLC 161653Z AUTO 05008KT 10SM CLR 09/M08 A2979 RMK AO2 SLP092 T00891078
KHLC 161553Z AUTO 00000KT 10SM CLR 03/M08 A2978 RMK AO2 SLP092 T00281078
KHLC 161453Z AUTO 31003KT 9SM CLR M02/M09 A2975 RMK AO2 SLP087 T10221094 50002
KHLC 161353Z AUTO 28003KT 9SM CLR M04/M11 A2975 RMK AO2 SLP088 T10441106
KHLC 161253Z AUTO 26003KT 10SM CLR M04/M11 A2975 RMK AO2 SLP085 T10441106
KHLC 161153Z AUTO 00000KT 10SM CLR M03/M11 A2975 RMK AO2 SLP084 T10281106 10028 21044 58007
KHLC 161053Z AUTO 29005KT 10SM CLR M02/M11 A2975 RMK AO2 SLP081 T10221106
KHLC 160953Z AUTO 27006KT 10SM CLR M01/M10 A2977 RMK AO2 SLP085 T10061100
KHLC 160853Z AUTO 25005KT 10SM CLR 01/M10 A2977 RMK AO2 SLP084 T00061100 55011
KHLC 160753Z AUTO 25006KT 10SM CLR 01/M11 A2977 RMK AO2 SLP083 T00111106
KHLC 160653Z AUTO 27005KT 10SM CLR 02/M11 A2978 RMK AO2 SLP088 T00221106
KHLC 160553Z AUTO 26007KT 10SM CLR 03/M10 A2981 RMK AO2 SLP098 T00281100 10089 20028 401501078 58009
KHLC 160453Z AUTO 26007KT 10SM CLR 03/M09 A2982 RMK AO2 SLP106 T00331094
KHLC 160353Z AUTO 25008KT 10SM CLR 06/M09 A2983 RMK AO2 SLP116 T00561094
KHLC 160253Z AUTO 22008KT 10SM CLR 07/M09 A2984 RMK AO2 SLP119 T00671089 58010